Time;durP1;ratioP1;P1;durP2;ratioP2;P2;SDS_P1;SDS_P2;PMS_P1;PMS_P2;Temp;Humidity;BMP_temperature;BMP_pressure;BME280_temperature;BME280_humidity;BME280_pressure;Samples;Min_cycle;Max_cycle;Signal;HPM_P1;HPM_P2
2022/09/12 00:01:57;;;;;;;1.00;0.80;;;;;;;14.56;63.73;92654.91;5036232;28;20032;-76
2022/09/12 00:04:22;;;;;;;1.40;0.68;;;;;;;14.54;63.55;92659.66;5036037;28;20140;-75
2022/09/12 00:06:48;;;;;;;4.15;0.90;;;;;;;14.51;63.67;92655.03;5052730;28;20251;-75
2022/09/12 00:09:14;;;;;;;1.50;0.88;;;;;;;14.52;63.35;92659.19;5019537;28;20029;-76
2022/09/12 00:11:43;;;;;;;1.15;0.70;;;;;;;14.50;63.41;92658.72;5010411;28;20088;-76
2022/09/12 00:14:12;;;;;;;1.67;0.80;;;;;;;14.45;63.32;92656.22;5031703;28;20469;-75
2022/09/12 00:16:38;;;;;;;2.38;0.70;;;;;;;14.42;63.48;92664.75;5033852;28;20073;-76
2022/09/12 00:19:05;;;;;;;1.50;0.80;;;;;;;14.43;63.07;92668.94;5032615;28;20499;-75
2022/09/12 00:21:35;;;;;;;1.25;0.68;;;;;;;14.41;63.38;92668.47;5032530;28;20483;-75
2022/09/12 00:24:02;;;;;;;1.65;1.00;;;;;;;14.40;63.51;92669.53;5032565;28;20052;-76
2022/09/12 00:26:28;;;;;;;3.95;0.90;;;;;;;14.39;63.28;92676.69;5033608;28;20403;-76
2022/09/12 00:28:53;;;;;;;3.30;0.85;;;;;;;14.36;63.11;92667.53;5033616;28;20041;-75
2022/09/12 00:31:22;;;;;;;0.90;0.85;;;;;;;14.35;63.29;92678.38;5033419;28;20385;-75
2022/09/12 00:33:48;;;;;;;2.67;1.02;;;;;;;14.35;63.77;92667.84;5048911;28;20479;-75
2022/09/12 00:36:18;;;;;;;1.65;0.90;;;;;;;14.32;64.13;92674.47;5033334;28;20087;-75
2022/09/12 00:38:44;;;;;;;1.05;0.80;;;;;;;14.32;64.06;92666.59;5048280;28;20036;-75
2022/09/12 00:41:19;;;;;;;1.55;0.90;;;;;;;14.28;63.81;92663.00;5031942;28;20036;-75
2022/09/12 00:43:48;;;;;;;2.55;0.93;;;;;;;14.25;63.93;92661.00;5015537;28;20120;-75
2022/09/12 00:46:33;;;;;;;2.45;1.20;;;;;;;14.21;64.69;92667.94;5033256;28;20057;-75
2022/09/12 00:49:14;;;;;;;1.05;0.80;;;;;;;14.20;64.97;92666.38;5033081;28;20029;-75
2022/09/12 00:51:45;;;;;;;2.25;0.95;;;;;;;14.14;65.28;92667.59;5048458;28;20498;-75
2022/09/12 00:54:17;;;;;;;3.20;1.00;;;;;;;14.11;65.15;92673.44;5033311;28;20423;-74
2022/09/12 00:56:46;;;;;;;4.72;1.25;;;;;;;14.08;65.71;92666.16;5031844;28;20041;-76
2022/09/12 00:59:19;;;;;;;2.22;1.08;;;;;;;14.05;66.16;92677.28;5032734;28;20040;-76
2022/09/12 01:01:48;;;;;;;4.18;1.10;;;;;;;14.01;65.88;92666.59;5033103;28;20399;-76
2022/09/12 01:04:16;;;;;;;2.33;0.98;;;;;;;13.99;66.00;92671.38;5042285;28;20090;-75
2022/09/12 01:06:43;;;;;;;1.65;0.88;;;;;;;13.98;66.13;92666.41;5051675;28;20040;-75
2022/09/12 01:09:16;;;;;;;1.00;0.88;;;;;;;13.97;66.47;92673.53;5051797;28;20052;-75
2022/09/12 01:11:45;;;;;;;3.35;1.00;;;;;;;13.91;67.46;92670.25;5054186;28;20052;-74
2022/09/12 01:14:11;;;;;;;2.20;1.05;;;;;;;13.89;67.63;92667.16;5034000;28;20256;-76
2022/09/12 01:16:37;;;;;;;1.17;0.90;;;;;;;13.84;67.59;92674.41;5052459;28;20125;-75
2022/09/12 01:19:21;;;;;;;7.15;1.63;;;;;;;13.80;67.73;92668.19;5052532;28;20128;-75
2022/09/12 01:22:24;;;;;;;2.22;1.00;;;;;;;13.76;68.96;92665.38;5051522;28;20033;-75
2022/09/12 01:25:01;;;;;;;1.65;1.00;;;;;;;13.71;69.29;92665.50;5051254;28;20040;-76
2022/09/12 01:27:39;;;;;;;1.85;1.00;;;;;;;13.70;69.80;92664.72;5052621;28;20029;-75
2022/09/12 01:30:43;;;;;;;3.05;1.13;;;;;;;13.70;70.24;92666.59;5052624;28;20077;-75
2022/09/12 01:33:39;;;;;;;2.83;1.08;;;;;;;13.64;70.64;92665.91;5052723;28;20120;-75
2022/09/12 01:36:04;;;;;;;2.13;1.10;;;;;;;13.67;71.34;92664.56;5051127;28;20044;-75
2022/09/12 01:38:37;;;;;;;3.33;1.25;;;;;;;13.63;71.47;92660.97;5051236;28;20029;-74
2022/09/12 01:41:27;;;;;;;2.65;1.05;;;;;;;13.60;71.72;92664.19;5051023;28;20028;-76
2022/09/12 01:44:24;;;;;;;2.30;1.08;;;;;;;13.54;71.84;92656.44;5045653;28;20056;-75
2022/09/12 01:47:10;;;;;;;1.75;1.10;;;;;;;13.52;71.77;92657.81;5047722;28;20075;-75
2022/09/12 01:50:21;;;;;;;3.20;1.20;;;;;;;13.46;72.67;92654.50;5034690;28;20376;-76
2022/09/12 01:52:55;;;;;;;2.95;1.25;;;;;;;13.43;73.09;92660.38;5048113;28;20083;-75
2022/09/12 01:55:39;;;;;;;2.85;1.20;;;;;;;13.39;73.28;92658.63;5051260;28;20060;-75
2022/09/12 01:58:18;;;;;;;1.98;1.17;;;;;;;13.37;73.45;92655.53;5033697;28;20403;-75
2022/09/12 02:00:58;;;;;;;1.80;1.10;;;;;;;13.37;73.48;92658.16;5052142;28;20037;-75
2022/09/12 02:03:30;;;;;;;2.38;1.10;;;;;;;13.38;73.92;92657.09;5034677;28;20047;-75
2022/09/12 02:06:02;;;;;;;3.33;1.42;;;;;;;13.36;73.96;92654.75;5051566;28;20417;-75
2022/09/12 02:08:31;;;;;;;;;;;;;;;13.36;73.95;92654.75;5051833;28;20411;-75
2022/09/12 02:11:06;;;;;;;5.15;1.25;;;;;;;13.42;74.14;92664.09;5050987;28;20302;-75
2022/09/12 02:13:35;;;;;;;2.35;1.30;;;;;;;13.38;73.56;92657.88;5051511;28;20032;-76
2022/09/12 02:16:09;;;;;;;4.18;1.30;;;;;;;13.35;73.34;92655.81;5051306;28;20033;-75
2022/09/12 02:18:39;;;;;;;1.83;1.10;;;;;;;13.36;72.44;92654.75;5051741;28;20036;-75
2022/09/12 02:21:05;;;;;;;4.97;1.10;;;;;;;13.33;72.82;92660.63;5033569;28;20033;-75
2022/09/12 02:23:33;;;;;;;4.03;1.13;;;;;;;13.31;72.73;92663.53;5050970;28;20032;-75
2022/09/12 02:26:26;;;;;;;2.10;1.40;;;;;;;13.28;72.46;92656.25;5048121;28;20449;-75
2022/09/12 02:28:52;;;;;;;1.98;1.10;;;;;;;13.27;72.67;92657.28;5028762;28;20045;-75
2022/09/12 02:31:31;;;;;;;2.17;1.17;;;;;;;13.23;73.15;92651.06;5032816;28;20044;-75
2022/09/12 02:34:16;;;;;;;1.52;0.90;;;;;;;13.21;73.48;92652.44;5033345;28;20651;-75
2022/09/12 02:37:00;;;;;;;5.40;1.05;;;;;;;13.20;73.17;92653.53;5050706;28;20086;-76
2022/09/12 02:39:25;;;;;;;1.85;1.10;;;;;;;13.19;72.98;92652.72;5033294;28;20033;-75
2022/09/12 02:41:54;;;;;;;1.50;1.02;;;;;;;13.19;72.71;92651.97;5033119;28;20086;-75
2022/09/12 02:44:21;;;;;;;2.05;1.10;;;;;;;13.17;72.38;92648.84;5050930;28;20037;-75
2022/09/12 02:46:53;;;;;;;2.15;1.10;;;;;;;13.17;72.14;92646.22;5033017;28;20037;-75
2022/09/12 02:49:18;;;;;;;1.77;1.10;;;;;;;13.14;72.89;92642.34;5050938;28;20490;-75
2022/09/12 02:51:45;;;;;;;3.10;1.10;;;;;;;13.15;72.29;92641.28;5049782;28;20127;-75
2022/09/12 02:54:13;;;;;;;2.85;1.20;;;;;;;13.15;72.60;92638.66;5048602;28;20052;-75
2022/09/12 02:56:42;;;;;;;2.67;1.20;;;;;;;13.17;72.54;92640.97;5051172;28;20082;-75
2022/09/12 02:59:09;;;;;;;2.08;1.00;;;;;;;13.16;72.87;92644.69;5051010;28;20035;-75
2022/09/12 03:01:51;;;;;;;1.80;1.10;;;;;;;13.17;71.80;92646.22;5033520;28;20036;-75
2022/09/12 03:04:29;;;;;;;;;;;;;;;13.18;71.28;92642.53;5016982;28;20048;-75
2022/09/12 03:07:32;;;;;;;3.80;1.10;;;;;;;13.16;69.55;92639.44;5031985;28;20371;-75
2022/09/12 03:10:31;;;;;;;1.15;0.98;;;;;;;13.13;67.95;92631.06;5030215;28;20501;-75
2022/09/12 03:13:27;;;;;;;1.83;1.02;;;;;;;13.16;67.87;92634.16;5051085;28;20040;-76
2022/09/12 03:16:11;;;;;;;1.98;0.90;;;;;;;13.15;68.09;92627.34;5021920;28;20609;-76
2022/09/12 03:19:12;;;;;;;3.35;0.95;;;;;;;13.12;68.01;92623.47;5029810;28;20094;-75
2022/09/12 03:21:40;;;;;;;1.48;1.00;;;;;;;13.11;67.64;92633.22;4981669;28;20486;-76
2022/09/12 03:24:17;;;;;;;3.28;1.00;;;;;;;13.10;67.73;92633.50;5020309;28;20024;-75
2022/09/12 03:26:57;;;;;;;2.65;1.00;;;;;;;13.10;67.47;92638.75;5053503;28;20398;-76
2022/09/12 03:29:24;;;;;;;4.95;1.05;;;;;;;13.09;67.08;92630.09;5037349;28;20125;-75
2022/09/12 03:31:53;;;;;;;1.20;0.80;;;;;;;13.09;66.86;92632.72;5054785;28;20405;-75
2022/09/12 03:34:20;;;;;;;2.65;1.10;;;;;;;13.07;66.69;92632.25;5054820;28;20459;-75
2022/09/12 03:36:46;;;;;;;5.28;1.00;;;;;;;13.06;66.63;92635.97;5053365;28;20033;-75
2022/09/12 03:39:12;;;;;;;2.80;0.90;;;;;;;13.04;66.43;92639.97;5053767;28;20033;-75
2022/09/12 03:41:38;;;;;;;1.35;0.75;;;;;;;13.02;66.42;92637.63;5054804;28;20588;-75
2022/09/12 03:44:04;;;;;;;1.17;0.90;;;;;;;13.01;66.18;92632.66;5036706;28;20037;-74
2022/09/12 03:46:29;;;;;;;2.10;0.90;;;;;;;12.99;65.84;92638.22;5036579;28;20098;-75
2022/09/12 03:48:55;;;;;;;5.80;1.10;;;;;;;12.96;65.96;92641.44;5036675;28;20087;-75
2022/09/12 03:51:21;;;;;;;1.73;0.93;;;;;;;12.94;66.06;92642.78;5036621;28;20119;-76
2022/09/12 03:53:46;;;;;;;4.90;0.90;;;;;;;12.89;66.32;92630.56;5033294;28;20037;-75
2022/09/12 03:56:13;;;;;;;2.20;1.00;;;;;;;12.91;66.30;92638.91;5036275;28;20119;-75
2022/09/12 03:58:39;;;;;;;1.95;1.05;;;;;;;12.89;66.20;92638.44;5036175;28;20029;-75
2022/09/12 04:01:13;;;;;;;1.42;0.90;;;;;;;12.87;65.73;92632.69;5054029;28;20049;-74
2022/09/12 04:03:40;;;;;;;1.05;0.80;;;;;;;12.85;66.20;92634.84;5036137;28;20498;-75
2022/09/12 04:06:06;;;;;;;1.42;0.93;;;;;;;12.82;66.51;92635.44;5054058;28;20086;-75
2022/09/12 04:08:33;;;;;;;1.33;1.00;;;;;;;12.81;66.52;92633.88;5054030;28;20154;-75
2022/09/12 04:11:08;;;;;;;2.42;0.90;;;;;;;12.79;66.58;92630.75;5036123;28;20049;-75
2022/09/12 04:13:35;;;;;;;1.05;0.80;;;;;;;12.77;66.79;92619.78;5036025;28;20100;-75
2022/09/12 04:16:01;;;;;;;5.45;0.90;;;;;;;12.77;66.98;92627.69;5034832;28;20064;-75
2022/09/12 04:18:26;;;;;;;3.72;1.00;;;;;;;12.79;67.02;92628.13;5035687;28;20047;-75
2022/09/12 04:20:52;;;;;;;2.58;1.00;;;;;;;12.78;67.04;92624.72;5053570;28;20041;-76
2022/09/12 04:23:18;;;;;;;3.08;1.20;;;;;;;12.80;67.06;92632.31;5033943;28;20082;-75
2022/09/12 04:25:53;;;;;;;1.75;0.95;;;;;;;12.77;67.29;92631.06;5030475;28;20037;-76
2022/09/12 04:28:18;;;;;;;2.30;1.00;;;;;;;12.76;67.63;92624.25;5053385;28;20407;-76
2022/09/12 04:30:44;;;;;;;3.72;1.20;;;;;;;12.77;68.01;92622.41;5052403;28;20025;-75
2022/09/12 04:33:09;;;;;;;3.65;1.40;;;;;;;12.74;68.82;92629.00;5052974;28;20033;-75
2022/09/12 04:35:35;;;;;;;2.10;0.90;;;;;;;12.74;68.33;92623.00;5035263;28;20033;-75
2022/09/12 04:38:01;;;;;;;3.13;0.98;;;;;;;12.75;68.23;92627.19;5053079;28;20390;-75
2022/09/12 04:40:29;;;;;;;1.77;1.10;;;;;;;12.71;67.88;92630.38;5035245;28;20045;-75
2022/09/12 04:42:55;;;;;;;2.00;0.95;;;;;;;12.69;68.01;92629.91;5018962;28;20605;-77
2022/09/12 04:45:21;;;;;;;3.13;1.00;;;;;;;12.69;68.07;92627.28;5035946;28;20047;-75
2022/09/12 04:47:46;;;;;;;1.30;0.90;;;;;;;12.75;68.14;92637.69;5035604;28;20056;-74
2022/09/12 04:50:14;;;;;;;1.67;0.95;;;;;;;12.70;67.87;92641.22;5036867;28;20041;-75
2022/09/12 04:52:40;;;;;;;7.63;1.10;;;;;;;12.69;67.60;92631.75;5037412;28;20052;-75
2022/09/12 04:55:07;;;;;;;4.05;1.10;;;;;;;12.67;67.33;92632.03;5049083;28;20037;-75
2022/09/12 04:57:34;;;;;;;6.13;1.20;;;;;;;12.67;67.85;92634.66;5035872;28;20112;-75
2022/09/12 05:00:00;;;;;;;5.72;1.10;;;;;;;12.69;68.00;92635.16;5035827;28;20033;-75
2022/09/12 05:02:26;;;;;;;4.32;1.02;;;;;;;12.69;67.80;92637.78;5035575;28;20091;-75
2022/09/12 05:04:53;;;;;;;3.95;1.38;;;;;;;12.69;68.52;92644.91;5053136;28;20032;-75
2022/09/12 05:07:18;;;;;;;5.10;1.30;;;;;;;12.68;68.39;92641.50;5018649;28;20384;-77
2022/09/12 05:09:44;;;;;;;6.18;1.15;;;;;;;12.69;68.44;92647.53;5002967;28;20094;-76
2022/09/12 05:12:10;;;;;;;4.22;1.17;;;;;;;12.69;68.02;92642.25;5062739;28;20105;-76
2022/09/12 05:14:36;;;;;;;1.60;1.05;;;;;;;12.73;67.86;92650.34;5055093;28;20064;-76
2022/09/12 05:17:04;;;;;;;10.43;1.33;;;;;;;12.76;67.31;92647.88;5072367;28;20079;-76
2022/09/12 05:19:30;;;;;;;7.28;1.42;;;;;;;12.79;67.72;92644.69;5073032;28;20028;-75
2022/09/12 05:21:57;;;;;;;7.38;2.22;;;;;;;12.82;67.68;92640.69;5054854;28;20040;-74
2022/09/12 05:24:23;;;;;;;4.93;1.20;;;;;;;12.91;67.52;92654.69;5064511;28;20107;-75
2022/09/12 05:26:49;;;;;;;3.25;1.15;;;;;;;12.98;67.40;92651.66;5054632;28;20083;-76
2022/09/12 05:29:15;;;;;;;3.80;1.15;;;;;;;13.08;66.82;92648.78;5038836;28;20479;-75
2022/09/12 05:31:40;;;;;;;5.75;1.13;;;;;;;13.16;66.83;92649.94;5038602;28;20406;-75
2022/09/12 05:34:08;;;;;;;2.75;1.00;;;;;;;13.26;66.83;92649.69;5058127;28;20151;-78
2022/09/12 05:36:36;;;;;;;2.63;0.82;;;;;;;13.39;66.79;92656.78;5058326;28;20037;-78
2022/09/12 05:39:03;;;;;;;1.33;1.00;;;;;;;13.54;66.56;92658.28;5058584;28;20032;-77
2022/09/12 05:41:31;;;;;;;4.65;1.40;;;;;;;13.70;66.42;92658.69;5075996;28;20047;-78
2022/09/12 05:44:04;;;;;;;6.20;1.20;;;;;;;13.88;66.39;92668.22;5075322;28;20028;-78
2022/09/12 05:46:41;;;;;;;2.85;1.20;;;;;;;14.01;65.79;92663.19;5075638;28;20028;-77
2022/09/12 05:49:10;;;;;;;2.70;1.13;;;;;;;14.12;65.88;92669.75;5075989;28;20457;-78
2022/09/12 05:51:39;;;;;;;5.88;1.30;;;;;;;14.28;65.75;92680.66;5058154;28;20115;-78
2022/09/12 05:54:07;;;;;;;1.88;1.02;;;;;;;14.96;64.74;92670.66;5074526;28;20042;-77
2022/09/12 05:56:38;;;;;;;6.45;2.10;;;;;;;16.09;62.41;92669.81;5060092;28;20036;-77
2022/09/12 05:59:14;;;;;;;4.07;1.30;;;;;;;17.18;59.84;92663.88;5056501;28;20040;-77
2022/09/12 06:01:40;;;;;;;5.00;1.70;;;;;;;18.07;56.48;92668.84;5037932;28;20092;-79
2022/09/12 06:04:07;;;;;;;4.28;1.30;;;;;;;18.91;54.76;92670.38;5038279;28;20033;-79
2022/09/12 06:06:36;;;;;;;4.10;1.70;;;;;;;19.62;52.63;92665.59;5038124;28;20036;-79
2022/09/12 06:09:03;;;;;;;4.00;1.60;;;;;;;20.31;50.60;92658.28;5056527;28;20033;-79
2022/09/12 06:11:32;;;;;;;5.95;2.03;;;;;;;20.91;49.34;92658.97;5048764;28;20053;-80
2022/09/12 06:13:58;;;;;;;2.70;1.40;;;;;;;21.46;47.08;92664.38;5036543;28;20229;-80
2022/09/12 06:16:30;;;;;;;4.75;1.10;;;;;;;21.88;45.99;92662.91;5019341;28;20317;-80
2022/09/12 06:18:59;;;;;;;1.20;0.90;;;;;;;22.40;44.73;92665.03;5037261;28;20048;-79
2022/09/12 06:21:25;;;;;;;4.22;1.20;;;;;;;23.00;43.33;92664.44;5035441;28;20027;-80
2022/09/12 06:23:57;;;;;;;4.72;1.30;;;;;;;23.39;42.62;92663.47;5020184;28;20037;-79
2022/09/12 06:26:24;;;;;;;;;;;;;;;23.77;41.02;92665.09;5032347;28;20443;-78
2022/09/12 06:28:52;;;;;;;0.98;0.77;;;;;;;24.37;40.65;92664.22;5021737;28;19913;-79
2022/09/12 06:31:21;;;;;;;4.40;1.20;;;;;;;24.73;39.88;92659.19;5017818;28;20037;-80
2022/09/12 06:33:50;;;;;;;3.78;1.27;;;;;;;25.16;38.08;92650.72;5048931;28;20036;-80
2022/09/12 06:36:18;;;;;;;2.03;1.02;;;;;;;25.66;37.90;92645.63;5037320;28;20512;-81
2022/09/12 06:38:50;;;;;;;2.55;1.20;;;;;;;25.94;38.25;92650.38;5037688;28;20041;-79
2022/09/12 06:41:16;;;;;;;2.88;1.20;;;;;;;26.12;37.11;92647.72;5015752;28;20041;-78
2022/09/12 06:43:42;;;;;;;7.28;1.38;;;;;;;26.68;36.65;92645.53;5036410;28;20025;-79
2022/09/12 06:46:09;;;;;;;5.68;1.60;;;;;;;27.16;36.01;92651.25;5034069;28;20099;-79
2022/09/12 06:48:35;;;;;;;3.47;1.30;;;;;;;27.11;34.43;92654.34;5035962;28;20034;-80
2022/09/12 06:51:08;;;;;;;6.60;1.40;;;;;;;27.05;34.88;92650.50;5033924;28;20083;-79
2022/09/12 06:53:35;;;;;;;6.65;1.85;;;;;;;27.05;35.52;92652.44;5037518;28;20045;-81
2022/09/12 06:56:08;;;;;;;5.32;1.40;;;;;;;27.35;35.73;92652.78;5019633;28;20060;-81
2022/09/12 06:58:34;;;;;;;5.28;1.52;;;;;;;27.85;35.77;92651.88;5010417;28;20038;-81
2022/09/12 07:01:24;;;;;;;5.18;1.40;;;;;;;27.50;35.83;92653.53;5036335;28;20523;-80
2022/09/12 07:03:52;;;;;;;2.42;1.30;;;;;;;28.08;35.60;92648.72;5038483;28;20030;-82
2022/09/12 07:06:20;;;;;;;4.40;1.20;;;;;;;28.28;35.05;92659.75;5040413;28;20033;-80
2022/09/12 07:08:46;;;;;;;5.50;1.40;;;;;;;28.03;32.96;92651.81;5042302;28;20052;-81
2022/09/12 07:11:14;;;;;;;7.07;1.20;;;;;;;28.19;33.19;92654.03;5044204;28;20041;-78
2022/09/12 07:13:41;;;;;;;5.25;1.42;;;;;;;28.10;35.18;92651.00;5057099;28;20479;-79
2022/09/12 07:16:09;;;;;;;6.72;1.50;;;;;;;26.73;38.82;92655.91;5057020;28;20037;-79
2022/09/12 07:18:39;;;;;;;7.95;1.60;;;;;;;26.13;38.87;92650.03;5057579;28;20509;-79
2022/09/12 07:21:10;;;;;;;4.60;1.38;;;;;;;25.43;40.31;92649.34;5059000;28;20033;-79
2022/09/12 07:23:36;;;;;;;;;;;;;;;24.71;41.59;92654.22;5062761;28;20040;-79
2022/09/12 07:26:03;;;;;;;7.00;1.50;;;;;;;24.34;43.25;92654.25;5055542;28;19912;-79
2022/09/12 07:28:33;;;;;;;3.80;1.30;;;;;;;23.49;43.51;92650.25;5033455;28;20049;-79
2022/09/12 07:31:10;;;;;;;4.03;1.30;;;;;;;23.19;45.24;92646.78;5035482;28;20592;-78
2022/09/12 07:33:37;;;;;;;7.72;1.52;;;;;;;22.56;46.94;92643.56;5063514;28;20037;-79
2022/09/12 07:36:05;;;;;;;5.72;1.52;;;;;;;22.45;47.78;92642.63;5025674;28;20088;-78
2022/09/12 07:38:30;;;;;;;4.97;1.40;;;;;;;22.10;47.34;92640.09;5049555;28;20037;-78
2022/09/12 07:40:56;;;;;;;5.72;1.50;;;;;;;21.95;48.56;92649.69;5059989;28;20029;-78
2022/09/12 07:43:23;;;;;;;3.75;1.50;;;;;;;21.82;48.74;92647.22;5061309;28;20048;-79
2022/09/12 07:45:58;;;;;;;9.13;1.70;;;;;;;21.54;50.26;92655.41;5059284;28;20510;-78
2022/09/12 07:48:24;;;;;;;7.30;1.50;;;;;;;21.37;50.89;92653.91;5025180;28;20128;-79
2022/09/12 07:51:10;;;;;;;9.77;1.60;;;;;;;21.67;50.64;92652.63;5047868;28;20046;-77
2022/09/12 07:53:38;;;;;;;7.82;1.60;;;;;;;21.32;51.01;92656.84;5026108;28;20037;-80
2022/09/12 07:56:05;;;;;;;10.93;1.83;;;;;;;21.51;51.25;92650.03;5036569;28;20057;-79
2022/09/12 07:58:33;;;;;;;6.35;1.55;;;;;;;21.45;51.22;92656.75;5056928;28;20029;-79
2022/09/12 08:01:11;;;;;;;9.15;1.50;;;;;;;21.37;50.45;92653.13;5057782;28;20104;-79
2022/09/12 08:03:41;;;;;;;7.20;1.40;;;;;;;21.43;51.19;92654.41;5051817;28;20029;-79
2022/09/12 08:06:15;;;;;;;5.88;1.50;;;;;;;21.53;50.42;92653.09;5045404;28;20033;-77
2022/09/12 08:08:41;;;;;;;4.93;1.30;;;;;;;21.59;50.32;92651.69;5028545;28;20033;-75
2022/09/12 08:11:10;;;;;;;10.65;1.38;;;;;;;21.25;50.18;92658.56;5021357;28;20061;-77
2022/09/12 08:13:38;;;;;;;4.30;1.30;;;;;;;21.18;50.03;92656.53;5044925;28;20076;-76
2022/09/12 08:16:26;;;;;;;5.25;1.77;;;;;;;21.52;50.87;92654.22;5028675;28;20040;-74
2022/09/12 08:18:51;;;;;;;3.90;1.45;;;;;;;21.33;49.64;92663.69;5037007;28;20094;-77
2022/09/12 08:21:22;;;;;;;5.60;1.40;;;;;;;21.48;50.16;92662.16;5036982;28;20033;-77
2022/09/12 08:23:53;;;;;;;3.90;1.60;;;;;;;21.44;48.71;92668.53;5035178;28;20036;-77
2022/09/12 08:26:19;;;;;;;7.38;1.38;;;;;;;21.25;49.86;92661.22;5014483;28;20056;-77
2022/09/12 08:28:45;;;;;;;5.55;1.55;;;;;;;21.03;50.03;92662.66;5031633;28;20029;-78
2022/09/12 08:31:16;;;;;;;3.75;1.42;;;;;;;20.96;50.80;92658.75;5038498;28;20469;-78
2022/09/12 08:33:42;;;;;;;3.63;1.40;;;;;;;20.85;50.43;92664.91;5010848;28;20038;-78
2022/09/12 08:36:10;;;;;;;4.22;1.30;;;;;;;20.81;50.84;92664.84;5017809;28;20045;-76
2022/09/12 08:38:37;;;;;;;3.08;1.20;;;;;;;20.90;49.90;92673.41;5035105;28;20041;-77
2022/09/12 08:41:21;;;;;;;4.80;1.30;;;;;;;21.20;48.78;92662.28;5038045;28;20506;-78
2022/09/12 08:44:15;;;;;;;2.55;1.27;;;;;;;20.90;48.17;92673.41;5033033;28;20522;-78
2022/09/12 08:47:05;;;;;;;3.55;1.20;;;;;;;21.05;48.97;92676.38;5018055;28;20029;-77
2022/09/12 08:49:35;;;;;;;4.47;1.20;;;;;;;20.84;47.31;92674.78;5018014;28;20060;-78
2022/09/12 08:52:29;;;;;;;3.92;1.48;;;;;;;20.81;48.74;92680.03;5018116;28;20040;-78
2022/09/12 08:54:55;;;;;;;4.43;1.30;;;;;;;20.64;48.74;92689.13;4984833;28;20034;-78
2022/09/12 08:57:23;;;;;;;8.82;1.38;;;;;;;20.78;50.23;92692.13;5035490;28;20083;-78
2022/09/12 08:59:50;;;;;;;4.90;1.30;;;;;;;20.74;50.91;92694.72;5032371;28;20037;-78
2022/09/12 09:02:44;;;;;;;7.55;1.60;;;;;;;20.92;51.18;92691.72;5036428;28;20128;-78
2022/09/12 09:05:28;;;;;;;4.80;1.30;;;;;;;20.92;50.99;92681.81;5016155;28;20029;-75
2022/09/12 09:08:25;;;;;;;6.13;1.60;;;;;;;21.00;50.56;92691.50;5035692;28;20083;-77
2022/09/12 09:11:00;;;;;;;2.22;1.40;;;;;;;21.19;50.76;92695.34;5015838;28;20040;-77
2022/09/12 09:16:30;;;;;;;7.37;1.87;;;;;;;21.40;51.21;92695.81;5030205;28;20033;-77
2022/09/12 09:19:00;;;;;;;6.20;1.40;;;;;;;21.45;51.29;92697.44;5031207;28;20044;-77
2022/09/12 09:21:31;;;;;;;5.75;1.50;;;;;;;21.46;50.78;92698.22;5029005;28;20052;-78
2022/09/12 09:24:05;;;;;;;9.10;1.37;;;;;;;21.06;51.23;92708.00;5030032;28;20025;-77
2022/09/12 09:26:40;;;;;;;5.72;1.38;;;;;;;21.34;49.61;92699.84;5056842;28;20111;-78
2022/09/12 09:29:35;;;;;;;6.22;1.35;;;;;;;21.51;50.29;92705.94;5022727;28;20534;-81
2022/09/12 09:32:04;;;;;;;4.88;1.30;;;;;;;21.42;49.69;92701.59;5013021;28;20034;-83
2022/09/12 09:34:33;;;;;;;8.68;1.55;;;;;;;21.49;50.98;92702.84;5037403;28;20029;-79
2022/09/12 09:37:28;;;;;;;7.00;1.50;;;;;;;21.71;50.63;92696.84;5037916;28;20037;-80
2022/09/12 09:40:23;;;;;;;4.20;1.50;;;;;;;21.62;49.17;92696.28;5051644;28;20035;-79
2022/09/12 09:42:57;;;;;;;4.35;1.90;;;;;;;21.41;51.10;92697.38;5038343;28;20057;-80
2022/09/12 09:45:26;;;;;;;5.35;1.70;;;;;;;21.19;50.73;92690.03;5036301;28;20037;-81
2022/09/12 09:48:04;;;;;;;4.97;1.70;;;;;;;21.28;50.73;92698.59;5046044;28;20096;-82
2022/09/12 09:50:29;;;;;;;4.78;1.73;;;;;;;21.45;51.46;92697.44;5044583;28;20029;-81
2022/09/12 09:52:58;;;;;;;3.80;1.70;;;;;;;21.58;50.16;92684.78;5025343;28;20056;-79
2022/09/12 09:55:33;;;;;;;4.18;1.77;;;;;;;21.53;50.11;92685.06;5028121;28;20392;-81
2022/09/12 09:57:59;;;;;;;4.63;1.90;;;;;;;21.64;50.89;92686.06;5015216;28;20097;-80
2022/09/12 10:00:30;;;;;;;3.72;1.95;;;;;;;21.70;49.77;92687.28;5034197;28;20037;-79
2022/09/12 10:03:08;;;;;;;4.20;1.73;;;;;;;21.70;48.60;92689.97;5041370;28;20053;-80
2022/09/12 10:05:45;;;;;;;3.80;1.67;;;;;;;22.06;49.67;92681.88;5038985;28;20680;-79
2022/09/12 10:08:25;;;;;;;7.30;1.80;;;;;;;21.94;47.65;92677.50;5033813;28;20048;-80
2022/09/12 10:11:04;;;;;;;7.25;2.22;;;;;;;21.80;49.49;92681.41;5058213;28;20052;-80
2022/09/12 10:13:38;;;;;;;4.88;1.90;;;;;;;21.84;50.07;92681.47;5035009;28;20048;-79
2022/09/12 10:16:29;;;;;;;5.50;2.35;;;;;;;21.95;49.88;92679.03;5028465;28;20030;-79
2022/09/12 10:18:57;;;;;;;7.90;2.58;;;;;;;21.91;49.49;92676.31;5008694;28;20041;-79
2022/09/12 10:21:29;;;;;;;4.97;2.13;;;;;;;22.06;51.29;92672.00;5035712;28;20455;-80
2022/09/12 10:24:09;;;;;;;3.95;2.20;;;;;;;21.96;50.65;92670.69;5024864;28;20053;-78
2022/09/12 10:26:39;;;;;;;7.10;2.78;;;;;;;21.71;50.57;92666.78;5024654;28;20040;-79
2022/09/12 10:29:13;;;;;;;8.38;2.50;;;;;;;21.91;51.91;92665.66;5025058;28;20030;-78
2022/09/12 10:31:48;;;;;;;7.95;2.72;;;;;;;21.90;51.60;92673.97;5024183;28;20034;-79
2022/09/12 10:34:24;;;;;;;6.00;2.60;;;;;;;21.84;50.21;92665.47;5039791;28;20087;-78
2022/09/12 10:36:53;;;;;;;8.85;2.88;;;;;;;21.89;51.26;92675.88;5043975;28;20112;-79
2022/09/12 10:39:19;;;;;;;6.15;2.95;;;;;;;21.85;52.04;92667.03;5044352;28;20025;-79
2022/09/12 10:41:46;;;;;;;9.27;3.17;;;;;;;21.58;51.57;92658.91;5025718;28;20033;-80
2022/09/12 10:44:27;;;;;;;8.75;3.20;;;;;;;21.81;51.51;92660.88;5039296;28;20049;-79
2022/09/12 10:46:53;;;;;;;5.55;3.33;;;;;;;21.77;52.63;92655.50;5022625;28;20025;-79
2022/09/12 10:49:23;;;;;;;7.30;3.15;;;;;;;22.00;51.35;92662.75;5040735;28;20029;-79
2022/09/12 10:51:49;;;;;;;11.05;3.70;;;;;;;21.91;51.35;92657.66;5022728;28;20041;-79
2022/09/12 10:54:18;;;;;;;10.23;3.30;;;;;;;21.84;50.67;92662.81;5040397;28;20021;-79
2022/09/12 10:56:53;;;;;;;7.60;2.90;;;;;;;21.80;52.09;92659.34;5023523;28;20040;-79
2022/09/12 10:59:41;;;;;;;13.82;3.33;;;;;;;21.81;52.44;92658.97;5039209;28;20034;-77
2022/09/12 11:02:26;;;;;;;8.18;2.58;;;;;;;22.33;52.00;92664.88;5038347;28;20522;-79
2022/09/12 11:05:04;;;;;;;6.95;2.50;;;;;;;22.37;50.21;92657.72;5050519;28;20047;-80
2022/09/12 11:07:37;;;;;;;5.65;2.65;;;;;;;22.55;51.50;92659.91;5059553;28;20033;-80
2022/09/12 11:10:02;;;;;;;;;;;;;;;22.36;48.91;92663.41;5021075;28;20071;-79
2022/09/12 11:12:32;;;;;;;7.03;2.28;;;;;;;22.78;49.90;92657.22;5044106;28;19958;-81
2022/09/12 11:15:21;;;;;;;8.00;2.25;;;;;;;22.90;48.85;92654.38;5048017;28;20029;-78
2022/09/12 11:18:04;;;;;;;4.47;2.40;;;;;;;22.71;50.52;92659.78;5059366;28;20084;-79
2022/09/12 11:20:41;;;;;;;7.13;2.42;;;;;;;22.84;48.98;92669.91;5044673;28;20052;-79
2022/09/12 11:23:22;;;;;;;7.07;2.80;;;;;;;22.49;47.63;92667.44;5042826;28;20062;-79
2022/09/12 11:26:03;;;;;;;5.72;2.30;;;;;;;22.70;48.49;92658.22;5057923;28;20029;-78
2022/09/12 11:28:39;;;;;;;4.10;2.10;;;;;;;22.88;50.42;92664.63;5057257;28;20059;-79
2022/09/12 11:31:17;;;;;;;6.85;2.42;;;;;;;22.92;48.99;92668.13;5046413;28;20033;-80
2022/09/12 11:33:45;;;;;;;5.57;2.80;;;;;;;23.18;49.47;92671.97;5043577;28;20041;-80
2022/09/12 11:36:29;;;;;;;5.68;2.47;;;;;;;23.31;48.72;92664.50;5053916;28;20111;-80
2022/09/12 11:39:27;;;;;;;8.13;2.25;;;;;;;23.53;47.84;92657.53;5043636;28;20059;-79
2022/09/12 11:42:01;;;;;;;4.68;1.95;;;;;;;23.95;48.04;92661.88;5046672;28;20056;-78
2022/09/12 11:44:45;;;;;;;4.88;2.10;;;;;;;23.96;45.69;92660.72;5063295;28;20036;-80
2022/09/12 11:47:13;;;;;;;5.03;1.98;;;;;;;24.18;44.48;92654.47;5057115;28;20029;-80
2022/09/12 11:49:44;;;;;;;5.57;2.13;;;;;;;24.00;45.55;92656.19;5059263;28;20072;-80
2022/09/12 11:52:24;;;;;;;5.05;2.30;;;;;;;23.99;46.37;92652.00;5058111;28;20060;-80
2022/09/12 11:54:59;;;;;;;5.18;2.20;;;;;;;23.88;44.96;92652.63;5066204;28;20052;-80
2022/09/12 11:57:28;;;;;;;4.57;2.00;;;;;;;24.04;46.02;92648.97;5056381;28;20091;-79
2022/09/12 12:00:32;;;;;;;5.18;2.53;;;;;;;23.87;46.95;92643.09;5056982;28;20052;-79
2022/09/12 12:03:08;;;;;;;16.13;2.95;;;;;;;23.59;47.17;92646.16;4977405;28;20477;-79